createdAt,value
2022-10-07T00:00:52.153Z,12.13
2022-10-07T00:01:31.038Z,12.12
2022-10-07T00:02:31.070Z,12.20
2022-10-07T00:03:30.952Z,12.07
2022-10-07T00:04:51.915Z,12.10
2022-10-07T00:05:51.875Z,12.10
2022-10-07T00:06:30.858Z,12.10
2022-10-07T00:07:30.810Z,12.06
2022-10-07T00:08:30.774Z,12.06
2022-10-07T00:09:51.736Z,12.07
2022-10-07T00:10:51.718Z,12.03
2022-10-07T00:11:30.678Z,11.99
2022-10-07T00:12:30.635Z,12.02
2022-10-07T00:13:30.615Z,12.04
2022-10-07T00:14:51.562Z,12.02
2022-10-07T00:15:51.521Z,12.03
2022-10-07T00:16:30.574Z,11.99
2022-10-07T00:17:30.449Z,11.97
2022-10-07T00:18:30.430Z,11.99
2022-10-07T00:19:51.384Z,11.90
2022-10-07T00:20:51.346Z,11.95
2022-10-07T00:21:30.313Z,11.88
2022-10-07T00:22:30.277Z,11.99
2022-10-07T00:23:30.239Z,11.94
2022-10-07T00:24:51.207Z,11.88
2022-10-07T00:25:51.172Z,11.87
2022-10-07T00:26:30.146Z,11.86
2022-10-07T00:27:30.108Z,11.86
2022-10-07T00:28:30.167Z,11.86
2022-10-07T00:29:51.025Z,11.90
2022-10-07T00:30:51.055Z,11.86
2022-10-07T00:31:29.961Z,11.86
2022-10-07T00:32:29.924Z,11.84
2022-10-07T00:33:29.888Z,11.81
2022-10-07T00:34:50.850Z,11.81
2022-10-07T00:35:50.827Z,11.83
2022-10-07T00:36:29.781Z,11.80
2022-10-07T00:37:29.754Z,11.86
2022-10-07T00:38:29.718Z,11.83
2022-10-07T00:39:50.681Z,11.75
2022-10-07T00:40:50.636Z,11.84
2022-10-07T00:41:29.608Z,11.68
2022-10-07T00:42:29.570Z,11.68
2022-10-07T00:43:29.552Z,11.69
2022-10-07T00:44:50.519Z,11.68
2022-10-07T00:45:50.527Z,11.63
2022-10-07T00:46:29.435Z,11.68
2022-10-07T00:47:29.411Z,11.69
2022-10-07T00:48:29.357Z,11.68
2022-10-07T00:49:50.323Z,11.68
2022-10-07T00:50:50.360Z,11.70
2022-10-07T00:51:29.267Z,11.69
2022-10-07T00:52:29.229Z,11.65
2022-10-07T00:53:29.182Z,11.66
2022-10-07T00:54:50.150Z,11.66
2022-10-07T00:55:50.111Z,11.72
2022-10-07T00:56:29.070Z,11.65
2022-10-07T00:57:29.036Z,11.62
2022-10-07T00:58:29.002Z,11.65
2022-10-07T00:59:50.247Z,11.73
2022-10-07T01:00:49.985Z,11.57
2022-10-07T01:01:28.949Z,11.63
2022-10-07T01:02:28.970Z,11.63
2022-10-07T01:03:28.840Z,11.60
2022-10-07T01:04:49.808Z,11.66
2022-10-07T01:05:49.750Z,11.65
2022-10-07T01:06:28.722Z,11.60
2022-10-07T01:07:28.685Z,11.60
2022-10-07T01:08:28.652Z,11.62
2022-10-07T01:09:49.626Z,11.55
2022-10-07T01:10:49.570Z,11.63
2022-10-07T01:11:28.543Z,11.59
2022-10-07T01:12:28.504Z,11.59
2022-10-07T01:13:28.468Z,11.59
2022-10-07T01:14:49.426Z,11.65
2022-10-07T01:15:49.393Z,11.57
2022-10-07T01:16:28.447Z,11.62
2022-10-07T01:17:28.329Z,11.63
2022-10-07T01:18:28.287Z,11.54
2022-10-07T01:19:49.253Z,11.63
2022-10-07T01:20:49.220Z,11.54
2022-10-07T01:21:28.184Z,11.55
2022-10-07T01:22:28.209Z,11.54
2022-10-07T01:23:28.114Z,11.50
2022-10-07T01:24:49.097Z,11.54
2022-10-07T01:25:49.040Z,11.50
2022-10-07T01:26:28.004Z,11.45
2022-10-07T01:27:27.965Z,11.45
2022-10-07T01:28:27.997Z,11.45
2022-10-07T01:29:48.906Z,11.41
2022-10-07T01:30:48.918Z,11.45
2022-10-07T01:31:27.827Z,11.45
2022-10-07T01:32:27.792Z,11.41
2022-10-07T01:33:27.769Z,11.36
2022-10-07T01:34:48.715Z,11.44
2022-10-07T01:35:48.687Z,11.52
2022-10-07T01:36:27.646Z,11.41
2022-10-07T01:37:27.636Z,11.45
2022-10-07T01:38:27.575Z,11.41
2022-10-07T01:39:48.538Z,11.44
2022-10-07T01:40:48.502Z,11.45
2022-10-07T01:41:27.470Z,11.45
2022-10-07T01:42:27.443Z,11.40
2022-10-07T01:43:27.410Z,11.41
2022-10-07T01:44:48.358Z,11.41
2022-10-07T01:45:48.345Z,11.47
2022-10-07T01:46:27.372Z,11.41
2022-10-07T01:47:27.325Z,11.35
2022-10-07T01:48:27.218Z,11.33
2022-10-07T01:49:48.177Z,11.32
2022-10-07T01:50:48.140Z,11.33
2022-10-07T01:51:27.117Z,11.29
2022-10-07T01:52:27.073Z,11.30
2022-10-07T01:53:27.040Z,11.32
2022-10-07T01:54:48.008Z,11.26
2022-10-07T01:55:47.979Z,11.29
2022-10-07T01:56:26.939Z,11.27
2022-10-07T01:57:26.896Z,11.25
2022-10-07T01:58:26.865Z,11.27
2022-10-07T01:59:47.829Z,11.25
2022-10-07T02:00:47.802Z,11.27
2022-10-07T02:01:26.825Z,11.25
2022-10-07T02:02:26.717Z,11.25
2022-10-07T02:03:26.769Z,11.29
2022-10-07T02:04:47.641Z,11.29
2022-10-07T02:05:47.614Z,11.22
2022-10-07T02:06:26.584Z,11.35
2022-10-07T02:07:26.548Z,11.27
2022-10-07T02:08:26.503Z,11.25
2022-10-07T02:09:47.472Z,11.26
2022-10-07T02:10:47.429Z,11.26
2022-10-07T02:11:26.401Z,11.23
2022-10-07T02:12:26.367Z,11.18
2022-10-07T02:13:26.331Z,11.22
2022-10-07T02:14:47.291Z,11.25
2022-10-07T02:15:47.324Z,11.26
2022-10-07T02:16:26.269Z,11.25
2022-10-07T02:17:26.182Z,11.30
2022-10-07T02:18:26.145Z,11.22
2022-10-07T02:19:47.119Z,11.29
2022-10-07T02:20:47.073Z,11.22
2022-10-07T02:21:26.039Z,11.26
2022-10-07T02:22:26.000Z,11.19
2022-10-07T02:23:25.967Z,11.22
2022-10-07T02:24:46.929Z,11.22
2022-10-07T02:25:46.893Z,11.23
2022-10-07T02:26:25.861Z,11.22
2022-10-07T02:27:25.828Z,11.19
2022-10-07T02:28:25.879Z,11.18
2022-10-07T02:29:46.747Z,11.18
2022-10-07T02:30:46.772Z,11.17
2022-10-07T02:31:25.786Z,11.18
2022-10-07T02:32:25.648Z,11.22
2022-10-07T02:33:25.611Z,11.19
2022-10-07T02:34:46.564Z,11.18
2022-10-07T02:35:46.643Z,11.11
2022-10-07T02:36:25.498Z,11.18
2022-10-07T02:37:25.465Z,11.05
2022-10-07T02:38:25.426Z,11.08
2022-10-07T02:39:46.392Z,11.07
2022-10-07T02:40:46.351Z,11.05
2022-10-07T02:41:25.322Z,11.12
2022-10-07T02:42:25.297Z,11.08
2022-10-07T02:43:25.256Z,11.12
2022-10-07T02:44:46.207Z,11.05
2022-10-07T02:45:46.190Z,11.07
2022-10-07T02:46:25.192Z,11.05
2022-10-07T02:47:25.112Z,11.05
2022-10-07T02:48:25.087Z,11.04
2022-10-07T02:49:46.045Z,11.08
2022-10-07T02:50:45.994Z,11.02
2022-10-07T02:51:24.968Z,10.93
2022-10-07T02:52:24.951Z,11.02
2022-10-07T02:53:24.891Z,10.99
2022-10-07T02:54:45.846Z,10.92
2022-10-07T02:55:45.816Z,10.92
2022-10-07T02:56:24.780Z,10.92
2022-10-07T02:57:24.741Z,10.94
2022-10-07T02:58:24.726Z,10.94
2022-10-07T02:59:45.675Z,10.86
2022-10-07T03:00:45.644Z,10.89
2022-10-07T03:01:24.653Z,10.92
2022-10-07T03:02:24.566Z,10.87
2022-10-07T03:03:24.612Z,10.92
2022-10-07T03:04:45.496Z,10.86
2022-10-07T03:05:45.463Z,10.92
2022-10-07T03:06:24.433Z,10.94
2022-10-07T03:07:24.390Z,10.90
2022-10-07T03:08:24.350Z,10.94
2022-10-07T03:09:45.312Z,10.87
2022-10-07T03:10:45.270Z,10.81
2022-10-07T03:11:24.241Z,10.84
2022-10-07T03:12:24.209Z,10.76
2022-10-07T03:13:24.170Z,10.87
2022-10-07T03:14:45.138Z,10.87
2022-10-07T03:15:45.161Z,10.81
2022-10-07T03:16:24.133Z,10.81
2022-10-07T03:17:24.026Z,10.78
2022-10-07T03:18:23.987Z,10.84
2022-10-07T03:19:44.955Z,10.81
2022-10-07T03:20:44.918Z,10.84
2022-10-07T03:21:23.894Z,10.97
2022-10-07T03:22:23.860Z,10.75
2022-10-07T03:23:23.805Z,10.81
2022-10-07T03:24:44.778Z,10.79
2022-10-07T03:25:44.731Z,10.78
2022-10-07T03:26:23.697Z,10.82
2022-10-07T03:27:23.664Z,10.76
2022-10-07T03:28:23.666Z,10.79
2022-10-07T03:29:44.585Z,10.76
2022-10-07T03:30:44.550Z,10.78
2022-10-07T03:31:23.589Z,10.79
2022-10-07T03:32:23.487Z,10.76
2022-10-07T03:33:24.273Z,10.75
2022-10-07T03:34:44.409Z,10.75
2022-10-07T03:35:44.376Z,10.75
2022-10-07T03:36:23.347Z,10.72
2022-10-07T03:37:23.303Z,10.75
2022-10-07T03:38:23.264Z,10.69
2022-10-07T03:39:44.229Z,10.75
2022-10-07T03:40:44.192Z,10.67
2022-10-07T03:41:23.159Z,10.60
2022-10-07T03:42:23.140Z,10.63
2022-10-07T03:43:23.094Z,10.63
2022-10-07T03:44:44.042Z,10.63
2022-10-07T03:45:44.008Z,10.61
2022-10-07T03:46:23.012Z,10.79
2022-10-07T03:47:22.947Z,10.64
2022-10-07T03:48:22.907Z,10.63
2022-10-07T03:49:43.863Z,10.67
2022-10-07T03:50:43.829Z,10.63
2022-10-07T03:51:22.826Z,10.57
2022-10-07T03:52:22.794Z,10.64
2022-10-07T03:53:22.726Z,10.61
2022-10-07T03:54:43.684Z,10.67
2022-10-07T03:55:43.652Z,10.71
2022-10-07T03:56:22.613Z,10.67
2022-10-07T03:57:22.584Z,10.69
2022-10-07T03:58:22.543Z,10.69
2022-10-07T03:59:43.502Z,10.69
2022-10-07T04:00:44.268Z,10.63
2022-10-07T04:01:22.512Z,10.63
2022-10-07T04:02:22.399Z,10.68
2022-10-07T04:03:22.390Z,10.67
2022-10-07T04:04:43.325Z,10.64
2022-10-07T04:05:43.287Z,10.64
2022-10-07T04:06:22.256Z,10.67
2022-10-07T04:07:22.217Z,10.61
2022-10-07T04:08:22.196Z,10.59
2022-10-07T04:09:43.145Z,10.63
2022-10-07T04:10:43.102Z,10.63
2022-10-07T04:11:22.078Z,10.61
2022-10-07T04:12:22.055Z,10.61
2022-10-07T04:13:21.999Z,10.64
2022-10-07T04:14:42.962Z,10.59
2022-10-07T04:15:42.932Z,10.68
2022-10-07T04:16:22.044Z,10.56
2022-10-07T04:17:21.865Z,10.64
2022-10-07T04:18:21.824Z,10.59
2022-10-07T04:19:42.778Z,10.69
2022-10-07T04:20:42.744Z,10.54
2022-10-07T04:21:21.725Z,10.56
2022-10-07T04:22:21.672Z,10.56
2022-10-07T04:23:21.639Z,10.57
2022-10-07T04:24:42.607Z,10.53
2022-10-07T04:25:42.568Z,10.56
2022-10-07T04:26:21.528Z,10.60
2022-10-07T04:27:47.006Z,10.56
2022-10-07T04:28:21.476Z,10.51
2022-10-07T04:29:42.416Z,10.51
2022-10-07T04:30:42.466Z,10.49
2022-10-07T04:31:21.413Z,10.53
2022-10-07T04:32:21.315Z,10.54
2022-10-07T04:33:21.272Z,10.54
2022-10-07T04:34:42.229Z,10.48
2022-10-07T04:35:42.197Z,10.54
2022-10-07T04:36:21.165Z,10.51
2022-10-07T04:37:21.129Z,10.46
2022-10-07T04:38:23.313Z,10.44
2022-10-07T04:39:59.637Z,10.46
2022-10-07T04:40:42.019Z,10.46
2022-10-07T04:41:20.985Z,10.46
2022-10-07T04:42:20.950Z,10.41
2022-10-07T04:43:20.934Z,10.48
2022-10-07T04:44:41.876Z,10.41
2022-10-07T04:45:41.837Z,10.42
2022-10-07T04:46:20.864Z,10.44
2022-10-07T04:47:20.771Z,10.44
2022-10-07T04:48:20.738Z,10.46
2022-10-07T04:49:41.691Z,10.44
2022-10-07T04:50:41.652Z,10.49
2022-10-07T04:51:20.618Z,10.41
2022-10-07T04:52:20.584Z,10.41
2022-10-07T04:53:20.545Z,10.40
2022-10-07T04:54:41.509Z,10.40
2022-10-07T04:55:41.481Z,10.42
2022-10-07T04:56:20.442Z,10.37
2022-10-07T04:57:20.403Z,10.35
2022-10-07T04:58:20.376Z,10.42
2022-10-07T04:59:43.074Z,10.40
2022-10-07T05:00:41.350Z,10.33
2022-10-07T05:01:20.317Z,10.26
2022-10-07T05:02:20.305Z,10.34
2022-10-07T05:03:20.190Z,10.28
2022-10-07T05:04:41.139Z,10.28
2022-10-07T05:05:41.107Z,10.31
2022-10-07T05:06:20.077Z,10.28
2022-10-07T05:07:20.046Z,10.23
2022-10-07T05:08:20.004Z,10.26
2022-10-07T05:09:40.964Z,10.20
2022-10-07T05:10:40.925Z,10.30
2022-10-07T05:11:19.896Z,10.25
2022-10-07T05:12:19.855Z,10.22
2022-10-07T05:13:19.826Z,10.20
2022-10-07T05:14:40.780Z,10.28
2022-10-07T05:15:40.748Z,10.31
2022-10-07T05:16:19.772Z,10.28
2022-10-07T05:17:19.677Z,10.22
2022-10-07T05:18:19.644Z,10.26
2022-10-07T05:19:40.599Z,10.28
2022-10-07T05:20:40.560Z,10.31
2022-10-07T05:21:19.529Z,10.28
2022-10-07T05:22:19.489Z,10.30
2022-10-07T05:23:22.217Z,10.19
2022-10-07T05:24:40.415Z,10.20
2022-10-07T05:25:40.380Z,10.28
2022-10-07T05:26:19.351Z,10.28
2022-10-07T05:27:19.315Z,10.25
2022-10-07T05:28:19.310Z,10.26
2022-10-07T05:29:40.243Z,10.26
2022-10-07T05:30:40.202Z,10.26
2022-10-07T05:31:19.233Z,10.26
2022-10-07T05:32:19.128Z,10.23
2022-10-07T05:33:19.096Z,10.23
2022-10-07T05:34:40.057Z,10.30
2022-10-07T05:35:40.019Z,10.33
2022-10-07T05:36:18.982Z,10.25
2022-10-07T05:37:18.954Z,10.25
2022-10-07T05:38:18.913Z,10.26
2022-10-07T05:39:39.873Z,10.28
2022-10-07T05:40:39.833Z,10.26
2022-10-07T05:41:18.808Z,10.25
2022-10-07T05:42:18.790Z,10.23
2022-10-07T05:43:18.728Z,10.22
2022-10-07T05:44:39.694Z,10.19
2022-10-07T05:45:39.700Z,10.33
2022-10-07T05:46:18.652Z,10.30
2022-10-07T05:47:18.652Z,10.25
2022-10-07T05:48:18.553Z,10.17
2022-10-07T05:49:39.509Z,10.28
2022-10-07T05:50:39.479Z,10.26
2022-10-07T05:51:18.446Z,10.31
2022-10-07T05:52:18.402Z,10.25
2022-10-07T05:53:18.370Z,10.31
2022-10-07T05:54:39.340Z,10.31
2022-10-07T05:55:40.216Z,10.30
2022-10-07T05:56:18.263Z,10.30
2022-10-07T05:57:18.224Z,10.30
2022-10-07T05:58:18.199Z,10.30
2022-10-07T05:59:39.152Z,10.33
2022-10-07T06:00:39.104Z,10.37
2022-10-07T06:01:18.078Z,10.34
2022-10-07T06:02:18.143Z,10.34
2022-10-07T06:03:18.063Z,10.40
2022-10-07T06:04:38.962Z,10.41
2022-10-07T06:05:38.925Z,10.42
2022-10-07T06:06:17.894Z,10.40
2022-10-07T06:07:21.353Z,10.40
2022-10-07T06:08:17.820Z,10.40
2022-10-07T06:09:38.783Z,10.41
2022-10-07T06:10:38.738Z,10.37
2022-10-07T06:11:17.717Z,10.38
2022-10-07T06:12:17.687Z,10.31
2022-10-07T06:13:17.639Z,10.35
2022-10-07T06:14:38.607Z,10.41
2022-10-07T06:15:38.567Z,10.44
2022-10-07T06:16:17.587Z,10.40
2022-10-07T06:17:17.492Z,10.42
2022-10-07T06:18:17.472Z,10.44
2022-10-07T06:19:38.418Z,10.42
2022-10-07T06:20:38.376Z,10.40
2022-10-07T06:21:17.345Z,10.42
2022-10-07T06:22:17.311Z,10.42
2022-10-07T06:23:17.272Z,10.46
2022-10-07T06:24:38.232Z,10.56
2022-10-07T06:25:38.200Z,10.51
2022-10-07T06:26:17.163Z,10.56
2022-10-07T06:27:17.133Z,10.61
2022-10-07T06:28:17.144Z,10.56
2022-10-07T06:29:38.055Z,10.67
2022-10-07T06:30:38.059Z,10.63
2022-10-07T06:31:17.034Z,10.61
2022-10-07T06:32:16.951Z,10.67
2022-10-07T06:33:16.922Z,10.56
2022-10-07T06:34:37.869Z,10.67
2022-10-07T06:35:37.845Z,10.63
2022-10-07T06:36:16.802Z,10.64
2022-10-07T06:37:16.778Z,10.67
2022-10-07T06:38:16.730Z,10.59
2022-10-07T06:39:37.694Z,10.68
2022-10-07T06:40:37.666Z,10.67
2022-10-07T06:41:16.624Z,10.72
2022-10-07T06:42:16.601Z,10.76
2022-10-07T06:43:16.552Z,10.82
2022-10-07T06:44:37.514Z,10.78
2022-10-07T06:45:37.513Z,10.79
2022-10-07T06:46:16.526Z,10.81
2022-10-07T06:47:16.411Z,10.75
2022-10-07T06:48:16.380Z,10.86
2022-10-07T06:49:37.329Z,10.92
2022-10-07T06:50:37.289Z,10.87
2022-10-07T06:51:16.261Z,10.92
2022-10-07T06:52:16.226Z,10.87
2022-10-07T06:53:16.192Z,10.97
2022-10-07T06:54:37.148Z,10.94
2022-10-07T06:55:37.114Z,10.97
2022-10-07T06:56:16.094Z,11.02
2022-10-07T06:57:43.739Z,11.00
2022-10-07T06:58:16.003Z,11.04
2022-10-07T06:59:36.969Z,11.07
2022-10-07T07:00:36.938Z,11.08
2022-10-07T07:01:15.956Z,11.10
2022-10-07T07:02:15.912Z,11.12
2022-10-07T07:03:15.838Z,11.05
2022-10-07T07:04:36.789Z,11.11
2022-10-07T07:05:40.093Z,11.17
2022-10-07T07:06:15.721Z,11.18
2022-10-07T07:07:15.687Z,11.17
2022-10-07T07:08:15.659Z,11.23
2022-10-07T07:09:36.616Z,11.22
2022-10-07T07:10:36.572Z,11.23
2022-10-07T07:11:15.549Z,11.23
2022-10-07T07:12:15.541Z,11.30
2022-10-07T07:13:15.471Z,11.33
2022-10-07T07:14:36.441Z,11.40
2022-10-07T07:15:36.548Z,11.40
2022-10-07T07:16:15.687Z,11.43
2022-10-07T07:17:15.365Z,11.41
2022-10-07T07:18:15.283Z,11.43
2022-10-07T07:19:36.243Z,11.44
2022-10-07T07:20:36.219Z,11.54
2022-10-07T07:21:15.179Z,11.45
2022-10-07T07:22:15.141Z,11.59
2022-10-07T07:23:15.106Z,11.54
2022-10-07T07:24:36.069Z,11.59
2022-10-07T07:25:36.032Z,11.60
2022-10-07T07:26:14.996Z,11.55
2022-10-07T07:27:14.961Z,11.69
2022-10-07T07:28:14.983Z,11.68
2022-10-07T07:29:35.891Z,11.72
2022-10-07T07:30:35.895Z,11.69
2022-10-07T07:31:14.860Z,11.81
2022-10-07T07:32:14.786Z,11.69
2022-10-07T07:33:14.743Z,11.78
2022-10-07T07:34:35.716Z,11.88
2022-10-07T07:35:35.677Z,11.86
2022-10-07T07:36:14.637Z,11.95
2022-10-07T07:37:14.616Z,11.94
2022-10-07T07:38:14.565Z,12.02
2022-10-07T07:39:35.535Z,12.03
2022-10-07T07:40:35.503Z,12.02
2022-10-07T07:41:14.463Z,12.13
2022-10-07T07:42:14.423Z,12.06
2022-10-07T07:43:14.397Z,12.13
2022-10-07T07:44:35.360Z,12.13
2022-10-07T07:45:35.325Z,12.20
2022-10-07T07:46:14.312Z,12.20
2022-10-07T07:47:14.267Z,12.18
2022-10-07T07:48:14.213Z,12.18
2022-10-07T07:49:35.183Z,12.28
2022-10-07T07:50:35.142Z,12.36
2022-10-07T07:51:14.103Z,12.42
2022-10-07T07:52:14.070Z,12.40
2022-10-07T07:53:14.045Z,12.47
2022-10-07T07:54:34.999Z,12.53
2022-10-07T07:55:34.970Z,12.61
2022-10-07T07:56:13.941Z,12.55
2022-10-07T07:57:13.900Z,12.68
2022-10-07T07:58:13.858Z,12.57
2022-10-07T07:59:34.834Z,12.65
2022-10-07T08:00:34.807Z,12.65
2022-10-07T08:01:13.839Z,12.61
2022-10-07T08:02:14.369Z,12.68
2022-10-07T08:03:13.687Z,12.67
2022-10-07T08:04:34.642Z,12.82
2022-10-07T08:05:34.615Z,12.82
2022-10-07T08:06:13.595Z,12.87
2022-10-07T08:07:13.541Z,12.87
2022-10-07T08:08:13.505Z,12.91
2022-10-07T08:09:34.470Z,12.97
2022-10-07T08:10:34.428Z,12.98
2022-10-07T08:11:13.398Z,13.04
2022-10-07T08:12:13.364Z,13.12
2022-10-07T08:13:13.377Z,13.09
2022-10-07T08:14:34.296Z,13.09
2022-10-07T08:15:34.317Z,13.23
2022-10-07T08:16:13.336Z,13.19
2022-10-07T08:17:13.367Z,13.25
2022-10-07T08:18:13.154Z,13.31
2022-10-07T08:19:34.115Z,13.37
2022-10-07T08:20:34.081Z,13.39
2022-10-07T08:21:13.070Z,13.44
2022-10-07T08:22:13.019Z,13.50
2022-10-07T08:23:12.984Z,13.54
2022-10-07T08:24:33.939Z,13.57
2022-10-07T08:25:33.909Z,13.60
2022-10-07T08:26:12.891Z,13.63
2022-10-07T08:27:12.859Z,13.71
2022-10-07T08:28:12.834Z,13.67
2022-10-07T08:29:33.769Z,13.77
2022-10-07T08:30:33.740Z,13.74
2022-10-07T08:31:12.804Z,13.78
2022-10-07T08:32:12.673Z,13.78
2022-10-07T08:33:12.630Z,13.92
2022-10-07T08:34:33.596Z,13.93
2022-10-07T08:35:33.563Z,14.03
2022-10-07T08:36:12.527Z,14.08
2022-10-07T08:37:12.509Z,14.14
2022-10-07T08:38:14.535Z,14.25
2022-10-07T08:39:33.423Z,14.23
2022-10-07T08:40:33.389Z,14.29
2022-10-07T08:41:12.894Z,14.28
2022-10-07T08:42:12.323Z,14.41
2022-10-07T08:43:12.306Z,14.37
2022-10-07T08:44:33.252Z,14.50
2022-10-07T08:45:33.219Z,14.45
2022-10-07T08:46:12.241Z,14.50
2022-10-07T08:47:12.165Z,14.62
2022-10-07T08:48:12.121Z,14.59
2022-10-07T08:49:33.085Z,14.66
2022-10-07T08:50:33.043Z,14.65
2022-10-07T08:51:12.023Z,14.72
2022-10-07T08:52:11.995Z,14.81
2022-10-07T08:53:11.949Z,14.85
2022-10-07T08:54:32.905Z,14.85
2022-10-07T08:55:32.880Z,14.97
2022-10-07T08:56:11.855Z,15.00
2022-10-07T08:57:11.828Z,15.03
2022-10-07T08:58:11.791Z,15.06
2022-10-07T08:59:32.739Z,15.06
2022-10-07T09:00:32.712Z,15.07
2022-10-07T09:01:11.697Z,15.18
2022-10-07T09:02:11.645Z,15.21
2022-10-07T09:03:11.622Z,15.27
2022-10-07T09:04:32.591Z,15.25
2022-10-07T09:05:32.544Z,15.27
2022-10-07T09:06:11.508Z,15.40
2022-10-07T09:07:11.479Z,15.42
2022-10-07T09:08:11.454Z,15.44
2022-10-07T09:09:32.425Z,15.52
2022-10-07T09:10:32.378Z,15.58
2022-10-07T09:11:11.349Z,15.62
2022-10-07T09:12:11.309Z,15.64
2022-10-07T09:13:11.275Z,15.70
2022-10-07T09:14:32.237Z,15.73
2022-10-07T09:15:32.257Z,15.82
2022-10-07T09:16:11.200Z,15.91
2022-10-07T09:17:11.137Z,15.86
2022-10-07T09:18:11.105Z,16.01
2022-10-07T09:19:32.070Z,16.05
2022-10-07T09:20:32.037Z,16.10
2022-10-07T09:21:11.004Z,16.08
2022-10-07T09:22:10.978Z,16.16
2022-10-07T09:23:10.940Z,16.12
2022-10-07T09:24:31.980Z,16.20
2022-10-07T09:25:31.872Z,16.32
2022-10-07T09:26:10.853Z,16.31
2022-10-07T09:27:10.817Z,16.41
2022-10-07T09:28:10.808Z,16.50
2022-10-07T09:29:31.744Z,16.50
2022-10-07T09:30:31.705Z,16.53
2022-10-07T09:31:10.738Z,16.66
2022-10-07T09:32:10.642Z,16.65
2022-10-07T09:33:10.606Z,16.69
2022-10-07T09:34:31.569Z,16.65
2022-10-07T09:35:31.539Z,16.71
2022-10-07T09:36:10.514Z,16.71
2022-10-07T09:37:10.484Z,16.79
2022-10-07T09:38:10.445Z,16.87
2022-10-07T09:39:31.409Z,16.87
2022-10-07T09:40:31.386Z,16.96
2022-10-07T09:41:10.356Z,17.01
2022-10-07T09:42:10.320Z,17.06
2022-10-07T09:43:10.274Z,17.05
2022-10-07T09:44:31.242Z,17.02
2022-10-07T09:45:31.211Z,17.05
2022-10-07T09:46:10.229Z,17.05
2022-10-07T09:47:10.327Z,17.20
2022-10-07T09:48:10.123Z,17.23
2022-10-07T09:49:31.083Z,17.24
2022-10-07T09:50:31.048Z,17.24
2022-10-07T09:51:10.021Z,17.38
2022-10-07T09:52:09.984Z,17.38
2022-10-07T09:53:09.952Z,17.49
2022-10-07T09:54:30.925Z,17.57
2022-10-07T09:55:30.896Z,17.63
2022-10-07T09:56:09.864Z,17.67
2022-10-07T09:57:09.828Z,17.79
2022-10-07T09:58:09.790Z,17.86
2022-10-07T09:59:30.752Z,17.95
2022-10-07T10:00:30.758Z,18.00
2022-10-07T10:01:09.748Z,18.08
2022-10-07T10:02:09.722Z,18.22
2022-10-07T10:03:09.659Z,18.19
2022-10-07T10:04:30.622Z,18.31
2022-10-07T10:05:30.558Z,18.44
2022-10-07T10:06:09.553Z,18.45
2022-10-07T10:07:09.516Z,18.44
2022-10-07T10:08:09.478Z,18.50
2022-10-07T10:09:30.450Z,18.53
2022-10-07T10:10:30.410Z,18.59
2022-10-07T10:11:09.375Z,18.80
2022-10-07T10:12:09.353Z,18.90
2022-10-07T10:13:09.332Z,18.98
2022-10-07T10:14:30.279Z,19.04
2022-10-07T10:15:30.246Z,19.15
2022-10-07T10:16:09.282Z,19.18
2022-10-07T10:17:09.190Z,19.16
2022-10-07T10:18:09.171Z,19.21
2022-10-07T10:19:34.919Z,19.29
2022-10-07T10:20:30.088Z,19.37
2022-10-07T10:21:09.087Z,19.33
2022-10-07T10:22:09.030Z,19.51
2022-10-07T10:23:09.003Z,19.58
2022-10-07T10:24:29.964Z,19.64
2022-10-07T10:25:29.957Z,19.62
2022-10-07T10:26:08.915Z,19.64
2022-10-07T10:27:08.880Z,19.71
2022-10-07T10:28:08.901Z,19.79
2022-10-07T10:29:29.824Z,19.99
2022-10-07T10:30:29.780Z,20.04
2022-10-07T10:31:08.827Z,20.13
2022-10-07T10:32:08.800Z,20.19
2022-10-07T10:33:08.692Z,20.25
2022-10-07T10:34:29.656Z,20.24
2022-10-07T10:35:29.622Z,20.19
2022-10-07T10:36:08.614Z,20.28
2022-10-07T10:37:13.675Z,20.40
2022-10-07T10:38:08.537Z,20.59
2022-10-07T10:39:29.557Z,20.72
2022-10-07T10:40:29.503Z,20.90
2022-10-07T10:41:08.478Z,20.92
2022-10-07T10:42:08.416Z,21.02
2022-10-07T10:43:08.393Z,21.09
2022-10-07T10:44:29.355Z,21.20
2022-10-07T10:45:29.335Z,21.18
2022-10-07T10:46:08.327Z,20.92
2022-10-07T10:47:08.342Z,20.92
2022-10-07T10:48:08.240Z,20.92
2022-10-07T10:49:29.204Z,21.00
2022-10-07T10:50:29.196Z,21.15
2022-10-07T10:51:08.152Z,21.09
2022-10-07T10:52:13.133Z,21.17
2022-10-07T10:53:08.082Z,21.20
2022-10-07T10:54:29.056Z,21.07
2022-10-07T10:55:29.041Z,21.09
2022-10-07T10:56:07.998Z,21.15
2022-10-07T10:57:07.969Z,21.35
2022-10-07T10:58:07.945Z,21.61
2022-10-07T10:59:28.903Z,21.57
2022-10-07T11:00:28.882Z,21.80
2022-10-07T11:01:07.849Z,21.96
2022-10-07T11:02:07.861Z,21.82
2022-10-07T11:03:07.840Z,22.04
2022-10-07T11:04:28.763Z,22.25
2022-10-07T11:05:28.739Z,22.30
2022-10-07T11:06:07.730Z,22.22
2022-10-07T11:07:07.676Z,22.39
2022-10-07T11:08:07.653Z,22.38
2022-10-07T11:09:30.753Z,22.54
2022-10-07T11:10:28.584Z,22.43
2022-10-07T11:11:07.566Z,22.29
2022-10-07T11:12:07.529Z,22.47
2022-10-07T11:13:07.501Z,22.69
2022-10-07T11:14:28.475Z,22.85
2022-10-07T11:15:28.445Z,23.12
2022-10-07T11:16:07.539Z,23.36
2022-10-07T11:17:07.412Z,23.37
2022-10-07T11:18:07.363Z,23.47
2022-10-07T11:19:28.338Z,23.40
2022-10-07T11:20:28.303Z,23.55
2022-10-07T11:21:07.272Z,22.91
2022-10-07T11:22:07.290Z,22.51
2022-10-07T11:23:07.290Z,22.76
2022-10-07T11:24:28.189Z,22.90
2022-10-07T11:25:28.170Z,23.00
2022-10-07T11:26:07.134Z,23.08
2022-10-07T11:27:07.101Z,23.21
2022-10-07T11:28:07.177Z,23.31
2022-10-07T11:29:28.047Z,23.43
2022-10-07T11:30:28.019Z,23.80
2022-10-07T11:31:07.050Z,24.01
2022-10-07T11:32:06.960Z,24.01
2022-10-07T11:33:06.929Z,24.02
2022-10-07T11:34:27.907Z,23.95
2022-10-07T11:35:27.875Z,24.18
2022-10-07T11:36:06.849Z,24.36
2022-10-07T11:37:06.823Z,24.48
2022-10-07T11:38:06.787Z,24.60
2022-10-07T11:39:27.764Z,24.50
2022-10-07T11:40:29.100Z,24.18
2022-10-07T11:41:06.705Z,24.03
2022-10-07T11:42:06.694Z,23.74
2022-10-07T11:43:06.651Z,24.13
2022-10-07T11:44:27.622Z,23.84
2022-10-07T11:45:27.608Z,23.78
2022-10-07T11:46:11.191Z,23.61
2022-10-07T11:47:06.544Z,23.41
2022-10-07T11:48:06.516Z,23.63
2022-10-07T11:49:27.489Z,23.81
2022-10-07T11:50:27.460Z,24.10
2022-10-07T11:51:06.446Z,23.95
2022-10-07T11:52:06.428Z,24.17
2022-10-07T11:53:06.379Z,24.01
2022-10-07T11:54:27.348Z,23.91
2022-10-07T11:55:27.319Z,24.01
2022-10-07T11:56:06.303Z,24.43
2022-10-07T11:57:06.269Z,24.50
2022-10-07T11:58:06.232Z,24.76
2022-10-07T11:59:27.205Z,25.04
2022-10-07T12:00:27.182Z,25.17
2022-10-07T12:01:06.152Z,25.33
2022-10-07T12:02:06.178Z,25.35
2022-10-07T12:03:06.129Z,25.47
2022-10-07T12:04:27.627Z,25.50
2022-10-07T12:05:27.040Z,25.35
2022-10-07T12:06:06.019Z,25.35
2022-10-07T12:07:05.991Z,25.23
2022-10-07T12:08:05.962Z,25.25
2022-10-07T12:09:26.930Z,24.66
2022-10-07T12:10:26.910Z,24.60
2022-10-07T12:11:05.890Z,24.76
2022-10-07T12:12:05.853Z,24.61
2022-10-07T12:13:05.840Z,24.63
2022-10-07T12:14:26.812Z,24.73
2022-10-07T12:15:26.769Z,24.61
2022-10-07T12:16:05.803Z,24.39
2022-10-07T12:17:05.727Z,24.47
2022-10-07T12:18:05.697Z,24.78
2022-10-07T12:19:26.661Z,24.96
2022-10-07T12:20:26.644Z,25.17
2022-10-07T12:21:05.607Z,25.18
2022-10-07T12:22:05.595Z,25.03
2022-10-07T12:23:05.554Z,24.80
2022-10-07T12:24:27.472Z,24.86
2022-10-07T12:25:26.496Z,24.89
2022-10-07T12:26:05.506Z,25.08
2022-10-07T12:27:05.484Z,25.26
2022-10-07T12:28:05.495Z,25.48
2022-10-07T12:29:26.397Z,25.69
2022-10-07T12:30:26.367Z,25.99
2022-10-07T12:31:05.669Z,25.99
2022-10-07T12:32:05.364Z,26.03
2022-10-07T12:33:05.292Z,25.87
2022-10-07T12:34:26.368Z,26.05
2022-10-07T12:35:26.231Z,25.91
2022-10-07T12:36:05.212Z,25.90
2022-10-07T12:37:05.191Z,26.06
2022-10-07T12:38:05.160Z,26.22
2022-10-07T12:39:26.128Z,26.44
2022-10-07T12:40:26.103Z,25.69
2022-10-07T12:41:05.115Z,25.98
2022-10-07T12:42:05.052Z,25.66
2022-10-07T12:43:05.024Z,25.28
2022-10-07T12:44:25.997Z,25.36
2022-10-07T12:45:25.990Z,25.41
2022-10-07T12:46:04.988Z,25.62
2022-10-07T12:47:04.920Z,25.78
2022-10-07T12:48:04.892Z,25.95
2022-10-07T12:49:25.870Z,25.70
2022-10-07T12:50:25.851Z,25.90
2022-10-07T12:51:04.819Z,26.19
2022-10-07T12:52:04.798Z,25.48